sensor_id;sensor_type;location;lat;lon;timestamp;temperature;humidity
25050;DHT22;13046;49.814;9.918;2023-11-19T00:00:30;6.70;99.90
25050;DHT22;13046;49.814;9.918;2023-11-19T00:02:56;6.70;99.90
25050;DHT22;13046;49.814;9.918;2023-11-19T00:05:21;6.70;99.90
25050;DHT22;13046;49.814;9.918;2023-11-19T00:07:47;6.70;99.90
25050;DHT22;13046;49.814;9.918;2023-11-19T00:10:15;6.70;99.90
25050;DHT22;13046;49.814;9.918;2023-11-19T00:12:50;6.70;99.90
25050;DHT22;13046;49.814;9.918;2023-11-19T00:15:17;6.70;99.90
25050;DHT22;13046;49.814;9.918;2023-11-19T00:17:46;6.80;99.90
25050;DHT22;13046;49.814;9.918;2023-11-19T00:20:12;6.80;99.90
25050;DHT22;13046;49.814;9.918;2023-11-19T00:22:39;6.80;99.90
25050;DHT22;13046;49.814;9.918;2023-11-19T00:25:05;6.70;99.90
25050;DHT22;13046;49.814;9.918;2023-11-19T00:27:31;6.80;99.90
25050;DHT22;13046;49.814;9.918;2023-11-19T00:29:57;6.80;99.90
25050;DHT22;13046;49.814;9.918;2023-11-19T00:32:23;6.80;99.90
25050;DHT22;13046;49.814;9.918;2023-11-19T00:34:48;6.80;99.90
25050;DHT22;13046;49.814;9.918;2023-11-19T00:37:15;6.80;99.90
25050;DHT22;13046;49.814;9.918;2023-11-19T00:39:41;6.90;99.90
25050;DHT22;13046;49.814;9.918;2023-11-19T00:42:07;6.80;99.90
25050;DHT22;13046;49.814;9.918;2023-11-19T00:44:33;6.80;99.90
25050;DHT22;13046;49.814;9.918;2023-11-19T00:46:58;6.80;99.90
25050;DHT22;13046;49.814;9.918;2023-11-19T00:49:25;6.80;99.90
25050;DHT22;13046;49.814;9.918;2023-11-19T00:51:51;6.80;99.90
25050;DHT22;13046;49.814;9.918;2023-11-19T00:54:17;6.80;99.90
25050;DHT22;13046;49.814;9.918;2023-11-19T00:56:43;6.90;99.90
25050;DHT22;13046;49.814;9.918;2023-11-19T00:59:08;6.90;99.90
25050;DHT22;13046;49.814;9.918;2023-11-19T01:01:34;6.80;99.90
25050;DHT22;13046;49.814;9.918;2023-11-19T01:04:00;6.80;99.90
25050;DHT22;13046;49.814;9.918;2023-11-19T01:06:29;6.80;99.90
25050;DHT22;13046;49.814;9.918;2023-11-19T01:08:55;6.80;99.90
25050;DHT22;13046;49.814;9.918;2023-11-19T01:11:25;6.80;99.90
25050;DHT22;13046;49.814;9.918;2023-11-19T01:13:51;6.80;99.90
25050;DHT22;13046;49.814;9.918;2023-11-19T01:16:18;6.90;99.90
25050;DHT22;13046;49.814;9.918;2023-11-19T01:18:47;6.90;99.90
25050;DHT22;13046;49.814;9.918;2023-11-19T01:21:14;6.90;99.90
25050;DHT22;13046;49.814;9.918;2023-11-19T01:23:42;6.90;99.90
25050;DHT22;13046;49.814;9.918;2023-11-19T01:26:09;6.90;99.90
25050;DHT22;13046;49.814;9.918;2023-11-19T01:28:38;6.90;99.90
25050;DHT22;13046;49.814;9.918;2023-11-19T01:31:11;6.90;99.90
25050;DHT22;13046;49.814;9.918;2023-11-19T01:33:38;6.90;99.90
25050;DHT22;13046;49.814;9.918;2023-11-19T01:36:04;7.00;99.90
25050;DHT22;13046;49.814;9.918;2023-11-19T01:38:32;7.00;99.90
25050;DHT22;13046;49.814;9.918;2023-11-19T01:40:57;7.00;99.90
25050;DHT22;13046;49.814;9.918;2023-11-19T01:46:05;7.10;99.90
25050;DHT22;13046;49.814;9.918;2023-11-19T01:48:33;7.10;99.90
25050;DHT22;13046;49.814;9.918;2023-11-19T01:51:00;7.10;99.90
25050;DHT22;13046;49.814;9.918;2023-11-19T01:53:27;7.20;99.90
25050;DHT22;13046;49.814;9.918;2023-11-19T01:55:53;7.20;99.90
25050;DHT22;13046;49.814;9.918;2023-11-19T01:58:19;7.20;99.90
25050;DHT22;13046;49.814;9.918;2023-11-19T02:00:45;7.20;99.90
25050;DHT22;13046;49.814;9.918;2023-11-19T02:03:12;7.20;99.90
25050;DHT22;13046;49.814;9.918;2023-11-19T02:05:39;7.20;99.90
25050;DHT22;13046;49.814;9.918;2023-11-19T02:08:06;7.20;99.90
25050;DHT22;13046;49.814;9.918;2023-11-19T02:10:32;7.20;99.90
25050;DHT22;13046;49.814;9.918;2023-11-19T02:12:59;7.20;99.90
25050;DHT22;13046;49.814;9.918;2023-11-19T02:15:25;7.30;99.90
25050;DHT22;13046;49.814;9.918;2023-11-19T02:17:51;7.30;99.90
25050;DHT22;13046;49.814;9.918;2023-11-19T02:20:17;7.30;99.90
25050;DHT22;13046;49.814;9.918;2023-11-19T02:22:46;7.20;99.90
25050;DHT22;13046;49.814;9.918;2023-11-19T02:25:19;7.20;99.90
25050;DHT22;13046;49.814;9.918;2023-11-19T02:27:53;7.20;99.90
25050;DHT22;13046;49.814;9.918;2023-11-19T02:30:23;7.30;99.90
25050;DHT22;13046;49.814;9.918;2023-11-19T02:33:01;7.30;99.90
25050;DHT22;13046;49.814;9.918;2023-11-19T02:35:31;7.30;99.90
25050;DHT22;13046;49.814;9.918;2023-11-19T02:37:58;7.30;99.90
25050;DHT22;13046;49.814;9.918;2023-11-19T02:40:29;7.30;99.90
25050;DHT22;13046;49.814;9.918;2023-11-19T02:42:55;7.40;99.90
25050;DHT22;13046;49.814;9.918;2023-11-19T02:45:25;7.40;99.90
25050;DHT22;13046;49.814;9.918;2023-11-19T02:47:52;7.50;99.90
25050;DHT22;13046;49.814;9.918;2023-11-19T02:50:19;7.50;99.90
25050;DHT22;13046;49.814;9.918;2023-11-19T02:52:51;7.50;99.90
25050;DHT22;13046;49.814;9.918;2023-11-19T02:55:17;7.60;99.90
25050;DHT22;13046;49.814;9.918;2023-11-19T02:57:44;7.70;99.90
25050;DHT22;13046;49.814;9.918;2023-11-19T03:00:23;7.70;99.90
25050;DHT22;13046;49.814;9.918;2023-11-19T03:02:50;7.70;99.90
25050;DHT22;13046;49.814;9.918;2023-11-19T03:05:39;7.70;99.90
25050;DHT22;13046;49.814;9.918;2023-11-19T03:08:06;7.80;99.90
25050;DHT22;13046;49.814;9.918;2023-11-19T03:10:32;7.80;99.90
25050;DHT22;13046;49.814;9.918;2023-11-19T03:13:00;7.80;99.90
25050;DHT22;13046;49.814;9.918;2023-11-19T03:15:27;7.80;99.90
25050;DHT22;13046;49.814;9.918;2023-11-19T03:17:53;7.80;99.90
25050;DHT22;13046;49.814;9.918;2023-11-19T03:20:19;7.90;99.90
25050;DHT22;13046;49.814;9.918;2023-11-19T03:22:46;8.00;99.90
25050;DHT22;13046;49.814;9.918;2023-11-19T03:25:12;8.00;99.90
25050;DHT22;13046;49.814;9.918;2023-11-19T03:27:39;8.00;99.90
25050;DHT22;13046;49.814;9.918;2023-11-19T03:30:08;8.00;99.90
25050;DHT22;13046;49.814;9.918;2023-11-19T03:32:37;7.90;99.90
25050;DHT22;13046;49.814;9.918;2023-11-19T03:35:05;7.90;99.90
25050;DHT22;13046;49.814;9.918;2023-11-19T03:37:33;7.90;99.90
25050;DHT22;13046;49.814;9.918;2023-11-19T03:39:59;7.90;99.90
25050;DHT22;13046;49.814;9.918;2023-11-19T03:42:28;7.90;99.90
25050;DHT22;13046;49.814;9.918;2023-11-19T03:44:56;7.90;99.90
25050;DHT22;13046;49.814;9.918;2023-11-19T03:47:21;7.90;99.90
25050;DHT22;13046;49.814;9.918;2023-11-19T03:49:49;7.90;99.90
25050;DHT22;13046;49.814;9.918;2023-11-19T03:52:15;7.90;99.90
25050;DHT22;13046;49.814;9.918;2023-11-19T03:54:40;7.90;99.90
25050;DHT22;13046;49.814;9.918;2023-11-19T03:57:06;7.90;99.90
25050;DHT22;13046;49.814;9.918;2023-11-19T03:59:32;8.00;99.90
25050;DHT22;13046;49.814;9.918;2023-11-19T04:01:59;8.00;99.90
25050;DHT22;13046;49.814;9.918;2023-11-19T04:04:26;7.90;99.90
25050;DHT22;13046;49.814;9.918;2023-11-19T04:06:53;7.90;99.90
25050;DHT22;13046;49.814;9.918;2023-11-19T04:09:18;8.00;99.90
25050;DHT22;13046;49.814;9.918;2023-11-19T04:11:44;8.00;99.90
25050;DHT22;13046;49.814;9.918;2023-11-19T04:14:12;8.00;99.90
25050;DHT22;13046;49.814;9.918;2023-11-19T04:16:39;8.00;99.90
25050;DHT22;13046;49.814;9.918;2023-11-19T04:19:05;8.00;99.90
25050;DHT22;13046;49.814;9.918;2023-11-19T04:21:32;8.00;99.90
25050;DHT22;13046;49.814;9.918;2023-11-19T04:23:58;8.00;99.90
25050;DHT22;13046;49.814;9.918;2023-11-19T04:26:23;8.00;99.90
25050;DHT22;13046;49.814;9.918;2023-11-19T04:28:49;8.00;99.90
25050;DHT22;13046;49.814;9.918;2023-11-19T04:31:17;8.00;99.90
25050;DHT22;13046;49.814;9.918;2023-11-19T04:33:43;8.00;99.90
25050;DHT22;13046;49.814;9.918;2023-11-19T04:36:10;8.10;99.90
25050;DHT22;13046;49.814;9.918;2023-11-19T04:38:37;8.10;99.90
25050;DHT22;13046;49.814;9.918;2023-11-19T04:41:05;8.20;99.90
25050;DHT22;13046;49.814;9.918;2023-11-19T04:43:34;8.30;99.90
25050;DHT22;13046;49.814;9.918;2023-11-19T04:46:00;8.40;99.90
25050;DHT22;13046;49.814;9.918;2023-11-19T04:48:25;8.40;99.90
25050;DHT22;13046;49.814;9.918;2023-11-19T04:50:51;8.60;99.90
25050;DHT22;13046;49.814;9.918;2023-11-19T04:53:18;8.60;99.90
25050;DHT22;13046;49.814;9.918;2023-11-19T04:55:43;8.60;99.90
25050;DHT22;13046;49.814;9.918;2023-11-19T04:58:10;8.70;99.90
25050;DHT22;13046;49.814;9.918;2023-11-19T05:00:35;8.80;99.90
25050;DHT22;13046;49.814;9.918;2023-11-19T05:03:01;8.80;99.90
25050;DHT22;13046;49.814;9.918;2023-11-19T05:05:28;8.80;99.90
25050;DHT22;13046;49.814;9.918;2023-11-19T05:07:53;8.90;99.90
25050;DHT22;13046;49.814;9.918;2023-11-19T05:10:20;8.90;99.90
25050;DHT22;13046;49.814;9.918;2023-11-19T05:12:46;8.90;99.90
25050;DHT22;13046;49.814;9.918;2023-11-19T05:15:12;8.90;99.90
25050;DHT22;13046;49.814;9.918;2023-11-19T05:17:38;8.90;99.90
25050;DHT22;13046;49.814;9.918;2023-11-19T05:20:05;9.00;99.90
25050;DHT22;13046;49.814;9.918;2023-11-19T05:22:42;8.90;99.90
25050;DHT22;13046;49.814;9.918;2023-11-19T05:25:08;9.00;99.90
25050;DHT22;13046;49.814;9.918;2023-11-19T05:27:38;9.00;99.90
25050;DHT22;13046;49.814;9.918;2023-11-19T05:30:05;9.10;99.90
25050;DHT22;13046;49.814;9.918;2023-11-19T05:32:34;9.00;99.90
25050;DHT22;13046;49.814;9.918;2023-11-19T05:35:00;9.00;99.90
25050;DHT22;13046;49.814;9.918;2023-11-19T05:37:25;9.10;99.90
25050;DHT22;13046;49.814;9.918;2023-11-19T05:39:51;9.10;99.90
25050;DHT22;13046;49.814;9.918;2023-11-19T05:42:17;9.10;99.90
25050;DHT22;13046;49.814;9.918;2023-11-19T05:44:43;9.10;99.90
25050;DHT22;13046;49.814;9.918;2023-11-19T05:47:09;9.20;99.90
25050;DHT22;13046;49.814;9.918;2023-11-19T05:49:34;9.10;99.90
25050;DHT22;13046;49.814;9.918;2023-11-19T05:52:00;9.20;99.90
25050;DHT22;13046;49.814;9.918;2023-11-19T05:54:28;9.20;99.90
25050;DHT22;13046;49.814;9.918;2023-11-19T05:56:54;9.20;99.90
25050;DHT22;13046;49.814;9.918;2023-11-19T05:59:20;9.20;99.90
25050;DHT22;13046;49.814;9.918;2023-11-19T06:01:48;9.20;99.90
25050;DHT22;13046;49.814;9.918;2023-11-19T06:04:14;9.20;99.90
25050;DHT22;13046;49.814;9.918;2023-11-19T06:06:39;9.30;99.90
25050;DHT22;13046;49.814;9.918;2023-11-19T06:09:06;9.30;99.90
25050;DHT22;13046;49.814;9.918;2023-11-19T06:11:33;9.30;99.90
25050;DHT22;13046;49.814;9.918;2023-11-19T06:13:59;9.30;99.90
25050;DHT22;13046;49.814;9.918;2023-11-19T06:16:26;9.30;99.90
25050;DHT22;13046;49.814;9.918;2023-11-19T06:18:52;9.40;99.90
25050;DHT22;13046;49.814;9.918;2023-11-19T06:21:19;9.40;99.90
25050;DHT22;13046;49.814;9.918;2023-11-19T06:23:44;9.40;99.90
25050;DHT22;13046;49.814;9.918;2023-11-19T06:26:10;9.50;99.90
25050;DHT22;13046;49.814;9.918;2023-11-19T06:28:36;9.50;99.90
25050;DHT22;13046;49.814;9.918;2023-11-19T06:31:03;9.50;99.90
25050;DHT22;13046;49.814;9.918;2023-11-19T06:33:29;9.50;99.90
25050;DHT22;13046;49.814;9.918;2023-11-19T06:35:54;9.60;99.90
25050;DHT22;13046;49.814;9.918;2023-11-19T06:38:20;9.60;99.90
25050;DHT22;13046;49.814;9.918;2023-11-19T06:40:46;9.60;99.90
25050;DHT22;13046;49.814;9.918;2023-11-19T06:43:11;9.80;99.90
25050;DHT22;13046;49.814;9.918;2023-11-19T06:45:37;9.80;99.90
25050;DHT22;13046;49.814;9.918;2023-11-19T06:48:05;9.80;99.90
25050;DHT22;13046;49.814;9.918;2023-11-19T06:50:32;9.80;99.90
25050;DHT22;13046;49.814;9.918;2023-11-19T06:52:58;9.90;99.90
25050;DHT22;13046;49.814;9.918;2023-11-19T06:55:23;9.80;99.90
25050;DHT22;13046;49.814;9.918;2023-11-19T06:57:49;9.80;99.90
25050;DHT22;13046;49.814;9.918;2023-11-19T07:00:15;9.80;99.90
25050;DHT22;13046;49.814;9.918;2023-11-19T07:02:41;9.80;99.90
25050;DHT22;13046;49.814;9.918;2023-11-19T07:05:06;9.90;99.90
25050;DHT22;13046;49.814;9.918;2023-11-19T07:07:33;9.80;99.90
25050;DHT22;13046;49.814;9.918;2023-11-19T07:09:59;9.90;99.90
25050;DHT22;13046;49.814;9.918;2023-11-19T07:12:25;9.80;99.90
25050;DHT22;13046;49.814;9.918;2023-11-19T07:14:52;9.80;99.90
25050;DHT22;13046;49.814;9.918;2023-11-19T07:17:19;9.70;99.90
25050;DHT22;13046;49.814;9.918;2023-11-19T07:19:46;9.70;99.90
25050;DHT22;13046;49.814;9.918;2023-11-19T07:22:12;9.80;99.90
25050;DHT22;13046;49.814;9.918;2023-11-19T07:24:39;9.90;99.90
25050;DHT22;13046;49.814;9.918;2023-11-19T07:27:05;9.80;99.90
25050;DHT22;13046;49.814;9.918;2023-11-19T07:29:32;9.90;99.90
25050;DHT22;13046;49.814;9.918;2023-11-19T07:31:57;9.90;99.90
25050;DHT22;13046;49.814;9.918;2023-11-19T07:34:24;10.00;99.90
25050;DHT22;13046;49.814;9.918;2023-11-19T07:36:50;10.00;99.90
25050;DHT22;13046;49.814;9.918;2023-11-19T07:39:15;10.10;99.90
25050;DHT22;13046;49.814;9.918;2023-11-19T07:41:41;10.10;99.90
25050;DHT22;13046;49.814;9.918;2023-11-19T07:44:09;10.10;99.90
25050;DHT22;13046;49.814;9.918;2023-11-19T07:46:35;10.10;99.90
25050;DHT22;13046;49.814;9.918;2023-11-19T07:49:00;10.10;99.90
25050;DHT22;13046;49.814;9.918;2023-11-19T07:51:28;10.20;99.90
25050;DHT22;13046;49.814;9.918;2023-11-19T07:53:53;10.20;99.90
25050;DHT22;13046;49.814;9.918;2023-11-19T07:56:19;10.20;99.90
25050;DHT22;13046;49.814;9.918;2023-11-19T07:58:45;10.30;99.90
25050;DHT22;13046;49.814;9.918;2023-11-19T08:01:10;10.30;99.90
25050;DHT22;13046;49.814;9.918;2023-11-19T08:03:36;10.30;99.90
25050;DHT22;13046;49.814;9.918;2023-11-19T08:06:03;10.30;99.90
25050;DHT22;13046;49.814;9.918;2023-11-19T08:08:29;10.30;99.90
25050;DHT22;13046;49.814;9.918;2023-11-19T08:10:56;10.40;99.90
25050;DHT22;13046;49.814;9.918;2023-11-19T08:13:25;10.30;99.90
25050;DHT22;13046;49.814;9.918;2023-11-19T08:15:51;10.30;99.90
25050;DHT22;13046;49.814;9.918;2023-11-19T08:18:17;10.40;99.90
25050;DHT22;13046;49.814;9.918;2023-11-19T08:20:44;10.40;99.90
25050;DHT22;13046;49.814;9.918;2023-11-19T08:23:10;10.40;99.90
25050;DHT22;13046;49.814;9.918;2023-11-19T08:25:36;10.40;99.90
25050;DHT22;13046;49.814;9.918;2023-11-19T08:28:02;10.50;99.90
25050;DHT22;13046;49.814;9.918;2023-11-19T08:30:29;10.50;99.90
25050;DHT22;13046;49.814;9.918;2023-11-19T08:32:55;10.50;99.90
25050;DHT22;13046;49.814;9.918;2023-11-19T08:35:21;10.60;99.90
25050;DHT22;13046;49.814;9.918;2023-11-19T08:37:47;10.70;99.90
25050;DHT22;13046;49.814;9.918;2023-11-19T08:40:13;10.90;99.90
25050;DHT22;13046;49.814;9.918;2023-11-19T08:42:40;11.10;99.90
25050;DHT22;13046;49.814;9.918;2023-11-19T08:45:07;11.30;99.90
25050;DHT22;13046;49.814;9.918;2023-11-19T08:47:36;11.40;99.90
25050;DHT22;13046;49.814;9.918;2023-11-19T08:50:01;11.50;99.90
25050;DHT22;13046;49.814;9.918;2023-11-19T08:52:29;11.30;99.90
25050;DHT22;13046;49.814;9.918;2023-11-19T08:54:55;11.30;99.90
25050;DHT22;13046;49.814;9.918;2023-11-19T08:57:21;11.40;99.90
25050;DHT22;13046;49.814;9.918;2023-11-19T08:59:47;11.50;99.90
25050;DHT22;13046;49.814;9.918;2023-11-19T09:04:38;11.70;99.90
25050;DHT22;13046;49.814;9.918;2023-11-19T09:07:04;12.40;99.90
25050;DHT22;13046;49.814;9.918;2023-11-19T09:11:56;12.60;99.90
25050;DHT22;13046;49.814;9.918;2023-11-19T09:14:22;13.00;99.90
25050;DHT22;13046;49.814;9.918;2023-11-19T09:16:52;13.10;99.90
25050;DHT22;13046;49.814;9.918;2023-11-19T09:19:18;13.30;99.90
25050;DHT22;13046;49.814;9.918;2023-11-19T09:29:04;13.50;99.90
25050;DHT22;13046;49.814;9.918;2023-11-19T09:36:22;13.90;99.90
25050;DHT22;13046;49.814;9.918;2023-11-19T09:38:48;14.20;99.90
25050;DHT22;13046;49.814;9.918;2023-11-19T09:41:13;14.30;99.90
25050;DHT22;13046;49.814;9.918;2023-11-19T09:43:40;14.40;99.90
25050;DHT22;13046;49.814;9.918;2023-11-19T09:46:09;14.40;99.90
25050;DHT22;13046;49.814;9.918;2023-11-19T09:48:38;14.50;99.90
25050;DHT22;13046;49.814;9.918;2023-11-19T09:51:10;14.40;99.90
25050;DHT22;13046;49.814;9.918;2023-11-19T09:53:37;14.40;99.90
25050;DHT22;13046;49.814;9.918;2023-11-19T09:56:04;14.50;99.90
25050;DHT22;13046;49.814;9.918;2023-11-19T09:58:31;14.40;99.90
25050;DHT22;13046;49.814;9.918;2023-11-19T10:00:57;14.30;99.90
25050;DHT22;13046;49.814;9.918;2023-11-19T10:03:27;14.10;99.90
25050;DHT22;13046;49.814;9.918;2023-11-19T10:05:55;14.00;99.90
25050;DHT22;13046;49.814;9.918;2023-11-19T10:08:21;14.00;99.90
25050;DHT22;13046;49.814;9.918;2023-11-19T10:10:47;13.90;99.90
25050;DHT22;13046;49.814;9.918;2023-11-19T10:13:13;13.80;99.90
25050;DHT22;13046;49.814;9.918;2023-11-19T10:15:40;13.80;99.90
25050;DHT22;13046;49.814;9.918;2023-11-19T10:18:06;13.70;99.90
25050;DHT22;13046;49.814;9.918;2023-11-19T10:20:36;13.70;99.90
25050;DHT22;13046;49.814;9.918;2023-11-19T10:23:02;13.60;99.90
25050;DHT22;13046;49.814;9.918;2023-11-19T10:25:28;13.50;99.90
25050;DHT22;13046;49.814;9.918;2023-11-19T10:27:56;13.50;99.90
25050;DHT22;13046;49.814;9.918;2023-11-19T10:30:26;13.50;99.90
25050;DHT22;13046;49.814;9.918;2023-11-19T10:33:06;13.40;99.90
25050;DHT22;13046;49.814;9.918;2023-11-19T10:35:37;13.40;99.90
25050;DHT22;13046;49.814;9.918;2023-11-19T10:38:15;13.40;99.90
25050;DHT22;13046;49.814;9.918;2023-11-19T10:40:41;13.40;99.90
25050;DHT22;13046;49.814;9.918;2023-11-19T10:43:08;13.40;99.90
25050;DHT22;13046;49.814;9.918;2023-11-19T10:45:35;13.50;99.90
25050;DHT22;13046;49.814;9.918;2023-11-19T10:48:02;13.90;99.90
25050;DHT22;13046;49.814;9.918;2023-11-19T10:55:37;14.10;99.90
25050;DHT22;13046;49.814;9.918;2023-11-19T10:58:10;13.70;99.90
25050;DHT22;13046;49.814;9.918;2023-11-19T11:00:41;13.60;99.90
25050;DHT22;13046;49.814;9.918;2023-11-19T11:03:14;13.40;99.90
25050;DHT22;13046;49.814;9.918;2023-11-19T11:05:40;13.40;99.90
25050;DHT22;13046;49.814;9.918;2023-11-19T11:08:07;13.30;99.90
25050;DHT22;13046;49.814;9.918;2023-11-19T11:10:39;13.30;99.90
25050;DHT22;13046;49.814;9.918;2023-11-19T11:13:07;13.20;99.90
25050;DHT22;13046;49.814;9.918;2023-11-19T11:15:33;13.10;99.90
25050;DHT22;13046;49.814;9.918;2023-11-19T11:18:01;13.10;99.90
25050;DHT22;13046;49.814;9.918;2023-11-19T11:20:31;13.10;99.90
25050;DHT22;13046;49.814;9.918;2023-11-19T11:41:44;14.40;99.90
25050;DHT22;13046;49.814;9.918;2023-11-19T11:44:10;14.80;99.90
25050;DHT22;13046;49.814;9.918;2023-11-19T11:49:03;15.30;99.90
25050;DHT22;13046;49.814;9.918;2023-11-19T11:54:11;15.30;99.90
25050;DHT22;13046;49.814;9.918;2023-11-19T11:56:37;15.10;99.90
25050;DHT22;13046;49.814;9.918;2023-11-19T11:59:07;14.70;99.90
25050;DHT22;13046;49.814;9.918;2023-11-19T12:01:33;14.50;99.90
25050;DHT22;13046;49.814;9.918;2023-11-19T12:03:59;14.40;99.90
25050;DHT22;13046;49.814;9.918;2023-11-19T12:08:53;14.20;99.90
25050;DHT22;13046;49.814;9.918;2023-11-19T12:11:24;13.90;99.90
25050;DHT22;13046;49.814;9.918;2023-11-19T12:13:56;13.80;99.90
25050;DHT22;13046;49.814;9.918;2023-11-19T12:16:23;13.80;99.90
25050;DHT22;13046;49.814;9.918;2023-11-19T12:18:49;13.70;99.90
25050;DHT22;13046;49.814;9.918;2023-11-19T12:21:29;13.70;99.90
25050;DHT22;13046;49.814;9.918;2023-11-19T12:23:59;13.70;99.90
25050;DHT22;13046;49.814;9.918;2023-11-19T12:26:34;13.70;99.90
25050;DHT22;13046;49.814;9.918;2023-11-19T12:29:00;13.90;99.90
25050;DHT22;13046;49.814;9.918;2023-11-19T12:31:26;14.20;99.90
25050;DHT22;13046;49.814;9.918;2023-11-19T12:33:52;14.70;99.90
25050;DHT22;13046;49.814;9.918;2023-11-19T12:38:45;15.00;99.90
25050;DHT22;13046;49.814;9.918;2023-11-19T12:41:11;14.80;99.90
25050;DHT22;13046;49.814;9.918;2023-11-19T12:43:39;14.80;99.90
25050;DHT22;13046;49.814;9.918;2023-11-19T12:46:23;14.80;99.90
25050;DHT22;13046;49.814;9.918;2023-11-19T12:48:50;14.90;99.90
25050;DHT22;13046;49.814;9.918;2023-11-19T12:51:16;15.10;99.90
25050;DHT22;13046;49.814;9.918;2023-11-19T12:58:50;15.10;99.90
25050;DHT22;13046;49.814;9.918;2023-11-19T13:03:44;14.90;99.90
25050;DHT22;13046;49.814;9.918;2023-11-19T13:06:11;14.90;99.90
25050;DHT22;13046;49.814;9.918;2023-11-19T13:08:45;14.90;99.90
25050;DHT22;13046;49.814;9.918;2023-11-19T13:14:00;15.00;99.90
25050;DHT22;13046;49.814;9.918;2023-11-19T13:16:28;15.50;99.90
25050;DHT22;13046;49.814;9.918;2023-11-19T13:18:54;15.90;99.90
25050;DHT22;13046;49.814;9.918;2023-11-19T13:21:20;16.00;99.90
25050;DHT22;13046;49.814;9.918;2023-11-19T13:23:46;16.10;99.90
25050;DHT22;13046;49.814;9.918;2023-11-19T13:26:12;15.70;99.90
25050;DHT22;13046;49.814;9.918;2023-11-19T13:28:38;15.90;99.90
25050;DHT22;13046;49.814;9.918;2023-11-19T13:31:04;16.10;99.90
25050;DHT22;13046;49.814;9.918;2023-11-19T13:33:30;16.10;99.90
25050;DHT22;13046;49.814;9.918;2023-11-19T13:35:56;16.40;99.90
25050;DHT22;13046;49.814;9.918;2023-11-19T13:38:22;16.80;99.90
25050;DHT22;13046;49.814;9.918;2023-11-19T13:40:51;17.30;99.90
25050;DHT22;13046;49.814;9.918;2023-11-19T13:43:17;17.40;99.90
25050;DHT22;13046;49.814;9.918;2023-11-19T13:45:43;17.10;99.90
25050;DHT22;13046;49.814;9.918;2023-11-19T13:48:08;16.80;99.90
25050;DHT22;13046;49.814;9.918;2023-11-19T13:50:35;16.40;99.90
25050;DHT22;13046;49.814;9.918;2023-11-19T13:53:00;16.00;99.90
25050;DHT22;13046;49.814;9.918;2023-11-19T13:55:26;15.90;99.90
25050;DHT22;13046;49.814;9.918;2023-11-19T13:57:52;15.70;99.90
25050;DHT22;13046;49.814;9.918;2023-11-19T14:00:18;15.70;99.90
25050;DHT22;13046;49.814;9.918;2023-11-19T14:02:45;15.20;99.90
25050;DHT22;13046;49.814;9.918;2023-11-19T14:05:12;14.90;99.90
25050;DHT22;13046;49.814;9.918;2023-11-19T14:07:39;14.60;99.90
25050;DHT22;13046;49.814;9.918;2023-11-19T14:10:05;14.50;99.90
25050;DHT22;13046;49.814;9.918;2023-11-19T14:12:32;14.40;99.90
25050;DHT22;13046;49.814;9.918;2023-11-19T14:14:58;14.20;99.90
25050;DHT22;13046;49.814;9.918;2023-11-19T14:17:25;14.20;99.90
25050;DHT22;13046;49.814;9.918;2023-11-19T14:19:51;14.10;99.90
25050;DHT22;13046;49.814;9.918;2023-11-19T14:22:17;14.10;99.90
25050;DHT22;13046;49.814;9.918;2023-11-19T14:24:42;14.00;99.90
25050;DHT22;13046;49.814;9.918;2023-11-19T14:27:12;14.00;99.90
25050;DHT22;13046;49.814;9.918;2023-11-19T14:29:37;14.00;99.90
25050;DHT22;13046;49.814;9.918;2023-11-19T14:32:03;13.90;99.90
25050;DHT22;13046;49.814;9.918;2023-11-19T14:34:32;13.90;99.90
25050;DHT22;13046;49.814;9.918;2023-11-19T14:36:59;13.90;99.90
25050;DHT22;13046;49.814;9.918;2023-11-19T14:39:26;13.80;99.90
25050;DHT22;13046;49.814;9.918;2023-11-19T14:41:51;13.80;99.90
25050;DHT22;13046;49.814;9.918;2023-11-19T14:44:19;13.80;99.90
25050;DHT22;13046;49.814;9.918;2023-11-19T14:46:46;13.70;99.90
25050;DHT22;13046;49.814;9.918;2023-11-19T14:49:12;13.70;99.90
25050;DHT22;13046;49.814;9.918;2023-11-19T14:51:39;13.60;99.90
25050;DHT22;13046;49.814;9.918;2023-11-19T14:54:05;13.50;99.90
25050;DHT22;13046;49.814;9.918;2023-11-19T14:56:31;13.40;99.90
25050;DHT22;13046;49.814;9.918;2023-11-19T14:58:57;13.20;99.90
25050;DHT22;13046;49.814;9.918;2023-11-19T15:01:22;13.10;99.90
25050;DHT22;13046;49.814;9.918;2023-11-19T15:03:48;13.10;99.90
25050;DHT22;13046;49.814;9.918;2023-11-19T15:06:13;13.10;99.90
25050;DHT22;13046;49.814;9.918;2023-11-19T15:08:40;13.10;99.90
25050;DHT22;13046;49.814;9.918;2023-11-19T15:11:07;13.00;99.90
25050;DHT22;13046;49.814;9.918;2023-11-19T15:13:35;12.90;99.90
25050;DHT22;13046;49.814;9.918;2023-11-19T15:16:03;13.00;99.90
25050;DHT22;13046;49.814;9.918;2023-11-19T15:18:31;13.00;99.90
25050;DHT22;13046;49.814;9.918;2023-11-19T15:20:57;12.90;99.90
25050;DHT22;13046;49.814;9.918;2023-11-19T15:23:23;12.90;99.90
25050;DHT22;13046;49.814;9.918;2023-11-19T15:25:48;12.80;99.90
25050;DHT22;13046;49.814;9.918;2023-11-19T15:28:15;12.80;99.90
25050;DHT22;13046;49.814;9.918;2023-11-19T15:30:40;12.70;99.90
25050;DHT22;13046;49.814;9.918;2023-11-19T15:33:06;12.70;99.90
25050;DHT22;13046;49.814;9.918;2023-11-19T15:35:34;12.50;99.90
25050;DHT22;13046;49.814;9.918;2023-11-19T15:38:00;12.40;99.90
25050;DHT22;13046;49.814;9.918;2023-11-19T15:40:25;12.40;99.90
25050;DHT22;13046;49.814;9.918;2023-11-19T15:42:52;12.40;99.90
25050;DHT22;13046;49.814;9.918;2023-11-19T15:45:20;12.30;99.90
25050;DHT22;13046;49.814;9.918;2023-11-19T15:47:46;12.30;99.90
25050;DHT22;13046;49.814;9.918;2023-11-19T15:50:11;12.20;99.90
25050;DHT22;13046;49.814;9.918;2023-11-19T15:52:39;12.10;99.90
25050;DHT22;13046;49.814;9.918;2023-11-19T15:55:13;12.00;99.90
25050;DHT22;13046;49.814;9.918;2023-11-19T15:57:38;11.90;99.90
25050;DHT22;13046;49.814;9.918;2023-11-19T16:00:04;11.50;99.90
25050;DHT22;13046;49.814;9.918;2023-11-19T16:02:30;11.40;99.90
25050;DHT22;13046;49.814;9.918;2023-11-19T16:04:56;11.10;99.90
25050;DHT22;13046;49.814;9.918;2023-11-19T16:07:22;11.10;99.90
25050;DHT22;13046;49.814;9.918;2023-11-19T16:09:47;11.10;99.90
25050;DHT22;13046;49.814;9.918;2023-11-19T16:12:14;11.40;99.90
25050;DHT22;13046;49.814;9.918;2023-11-19T16:14:39;11.40;99.90
25050;DHT22;13046;49.814;9.918;2023-11-19T16:17:05;11.60;99.90
25050;DHT22;13046;49.814;9.918;2023-11-19T16:19:31;11.70;99.90
25050;DHT22;13046;49.814;9.918;2023-11-19T16:21:59;11.70;99.90
25050;DHT22;13046;49.814;9.918;2023-11-19T16:24:35;11.90;99.90
25050;DHT22;13046;49.814;9.918;2023-11-19T16:27:02;12.10;99.90
25050;DHT22;13046;49.814;9.918;2023-11-19T16:29:30;12.10;99.90
25050;DHT22;13046;49.814;9.918;2023-11-19T16:31:56;12.10;99.90
25050;DHT22;13046;49.814;9.918;2023-11-19T16:34:22;12.10;99.90
25050;DHT22;13046;49.814;9.918;2023-11-19T16:36:48;12.20;99.90
25050;DHT22;13046;49.814;9.918;2023-11-19T16:39:14;12.20;99.90